Time;durP1;ratioP1;P1;durP2;ratioP2;P2;SDS_P1;SDS_P2;PMS_P1;PMS_P2;Temp;Humidity;BMP_temperature;BMP_pressure;BME280_temperature;BME280_humidity;BME280_pressure;Samples;Min_cycle;Max_cycle;Signal;HPM_P1;HPM_P2
2023/09/10 00:00:06;;;;;;;2.60;2.42;;;24.40;74.60;;;;;;4966987;28;20504;-75
2023/09/10 00:02:31;;;;;;;2.72;2.63;;;24.40;74.60;;;;;;4966746;28;20508;-75
2023/09/10 00:04:57;;;;;;;2.83;2.63;;;24.40;74.60;;;;;;4967366;28;20070;-75
2023/09/10 00:07:22;;;;;;;2.80;2.70;;;24.40;74.60;;;;;;4967285;28;20492;-75
2023/09/10 00:09:48;;;;;;;2.30;2.20;;;24.50;74.70;;;;;;4965571;28;20163;-75
2023/09/10 00:12:13;;;;;;;2.45;2.35;;;24.40;74.60;;;;;;4964754;28;20050;-75
2023/09/10 00:14:39;;;;;;;2.45;2.35;;;24.40;74.70;;;;;;4966225;28;20078;-75
2023/09/10 00:17:05;;;;;;;2.50;2.38;;;24.40;74.70;;;;;;4964302;28;20109;-75
2023/09/10 00:19:30;;;;;;;2.20;2.10;;;24.40;74.60;;;;;;4966410;28;20045;-75
2023/09/10 00:21:56;;;;;;;2.42;2.33;;;24.40;74.60;;;;;;4965653;28;20129;-75
2023/09/10 00:24:21;;;;;;;2.80;2.60;;;24.40;74.50;;;;;;4966032;28;20041;-75
2023/09/10 00:26:47;;;;;;;2.33;2.22;;;24.40;74.60;;;;;;4966060;28;20053;-74
2023/09/10 00:29:12;;;;;;;2.42;2.33;;;24.40;74.50;;;;;;4965966;28;20051;-74
2023/09/10 00:31:38;;;;;;;2.33;2.22;;;24.40;74.50;;;;;;4967574;28;20126;-75
2023/09/10 00:34:04;;;;;;;2.15;2.05;;;24.40;74.60;;;;;;4970219;28;20042;-74
2023/09/10 00:36:29;;;;;;;2.60;2.40;;;24.40;74.70;;;;;;4968645;28;20390;-74
2023/09/10 00:38:55;;;;;;;2.50;2.40;;;24.40;74.60;;;;;;4969432;28;20046;-74
2023/09/10 00:41:20;;;;;;;2.20;2.10;;;24.40;74.60;;;;;;4969842;28;20516;-75
2023/09/10 00:43:46;;;;;;;2.15;2.05;;;24.40;74.60;;;;;;4970391;28;20055;-75
2023/09/10 00:46:11;;;;;;;2.25;2.15;;;24.40;74.70;;;;;;4969491;28;20055;-74
2023/09/10 00:48:37;;;;;;;1.80;1.80;;;24.40;74.60;;;;;;4951402;28;20572;-75
2023/09/10 00:51:03;;;;;;;2.42;2.33;;;24.40;74.80;;;;;;4968713;28;20050;-75
2023/09/10 00:53:28;;;;;;;2.28;2.17;;;24.40;74.70;;;;;;4969410;28;20054;-75
2023/09/10 00:55:54;;;;;;;2.22;2.10;;;24.40;74.80;;;;;;4970733;28;20096;-75
2023/09/10 00:58:19;;;;;;;2.50;2.40;;;24.40;74.70;;;;;;4967238;28;20098;-75
2023/09/10 01:00:45;;;;;;;2.35;2.25;;;24.40;74.80;;;;;;4968059;28;20039;-74
2023/09/10 01:03:11;;;;;;;2.33;2.22;;;24.40;74.80;;;;;;4951788;28;20508;-74
2023/09/10 01:05:36;;;;;;;2.30;2.20;;;24.40;74.80;;;;;;4966682;28;20047;-74
2023/09/10 01:08:03;;;;;;;2.58;2.38;;;24.40;74.80;;;;;;4967966;28;20084;-74
2023/09/10 01:10:33;;;;;;;2.60;2.50;;;24.40;74.90;;;;;;4969636;28;20513;-75
2023/09/10 01:13:26;;;;;;;2.53;2.42;;;24.40;74.90;;;;;;4968699;28;20034;-75
2023/09/10 01:15:55;;;;;;;3.58;2.75;;;24.40;74.80;;;;;;4966871;28;20150;-74
2023/09/10 01:18:25;;;;;;;2.33;2.22;;;24.40;74.90;;;;;;4965701;28;20047;-75
2023/09/10 01:21:00;;;;;;;2.00;1.90;;;24.40;74.90;;;;;;4970605;28;20046;-74
2023/09/10 01:23:47;;;;;;;3.78;2.45;;;24.40;75.00;;;;;;4968593;28;20043;-75
2023/09/10 01:26:13;;;;;;;2.40;2.30;;;24.40;75.00;;;;;;4969163;28;20054;-74
2023/09/10 01:28:38;;;;;;;3.00;2.67;;;24.40;75.00;;;;;;4969287;28;20031;-74
2023/09/10 01:31:04;;;;;;;2.80;2.70;;;24.40;75.00;;;;;;4968342;28;20043;-75
2023/09/10 01:33:36;;;;;;;2.30;2.20;;;24.40;75.00;;;;;;4968762;28;20524;-74
2023/09/10 01:36:14;;;;;;;2.22;2.13;;;24.40;75.00;;;;;;4968198;28;20039;-74
2023/09/10 01:38:47;;;;;;;2.10;2.00;;;24.40;75.00;;;;;;4963637;28;20145;-74
2023/09/10 01:41:15;;;;;;;2.20;2.10;;;24.40;75.00;;;;;;4965677;28;20505;-74
2023/09/10 01:43:40;;;;;;;2.60;2.40;;;24.40;75.10;;;;;;4969005;28;20117;-75
2023/09/10 01:46:06;;;;;;;3.00;2.60;;;24.40;75.10;;;;;;4968503;28;20054;-75
2023/09/10 01:48:32;;;;;;;2.30;2.20;;;24.40;75.00;;;;;;4966664;28;20035;-74
2023/09/10 01:50:58;;;;;;;2.45;2.33;;;24.40;75.10;;;;;;4982959;28;20049;-74
2023/09/10 01:53:23;;;;;;;2.67;2.58;;;24.40;75.10;;;;;;4968722;28;20050;-74
2023/09/10 01:55:49;;;;;;;2.30;2.20;;;24.40;75.10;;;;;;4969230;28;20043;-74
2023/09/10 01:58:15;;;;;;;2.55;2.35;;;24.40;75.10;;;;;;4968934;28;20100;-75
2023/09/10 02:00:41;;;;;;;2.17;2.08;;;24.40;75.10;;;;;;4966068;28;20047;-75
2023/09/10 02:03:07;;;;;;;2.30;2.20;;;24.40;75.10;;;;;;4967753;28;20050;-74
2023/09/10 02:05:32;;;;;;;2.10;2.00;;;24.40;75.00;;;;;;4968554;28;20035;-74
2023/09/10 02:07:58;;;;;;;2.60;2.50;;;24.40;75.10;;;;;;4968749;28;20126;-74
2023/09/10 02:10:24;;;;;;;2.28;2.17;;;24.40;75.20;;;;;;4966346;28;20051;-74
2023/09/10 02:12:49;;;;;;;4.22;2.35;;;24.40;75.10;;;;;;4967494;28;20046;-74
2023/09/10 02:15:16;;;;;;;2.60;2.50;;;24.40;75.10;;;;;;4968024;28;20046;-74
2023/09/10 02:17:42;;;;;;;2.22;2.13;;;24.40;75.20;;;;;;4967611;28;20082;-74
2023/09/10 02:20:10;;;;;;;2.65;2.55;;;24.40;75.30;;;;;;4968048;28;20081;-75
2023/09/10 02:22:37;;;;;;;2.90;2.70;;;24.40;75.30;;;;;;4969362;28;20074;-75
2023/09/10 02:25:04;;;;;;;2.38;2.28;;;24.40;75.30;;;;;;4967832;28;20505;-75
2023/09/10 02:27:30;;;;;;;2.30;2.20;;;24.40;75.30;;;;;;4966996;28;20070;-74
2023/09/10 02:29:56;;;;;;;2.30;2.20;;;24.40;75.30;;;;;;4967347;28;20041;-75
2023/09/10 02:32:22;;;;;;;2.47;2.38;;;24.40;75.30;;;;;;4967397;28;20062;-75
2023/09/10 02:34:48;;;;;;;2.63;2.42;;;24.40;75.30;;;;;;4969353;28;20070;-74
2023/09/10 02:37:14;;;;;;;2.53;2.42;;;24.40;75.30;;;;;;4968032;28;20078;-75
2023/09/10 02:39:40;;;;;;;2.20;2.10;;;24.40;75.30;;;;;;4967512;28;20026;-75
2023/09/10 02:42:05;;;;;;;2.30;2.20;;;24.40;75.40;;;;;;4964732;28;20050;-74
2023/09/10 02:44:31;;;;;;;2.42;2.22;;;24.40;75.40;;;;;;4967660;28;20053;-74
2023/09/10 02:46:56;;;;;;;2.30;2.20;;;24.40;75.50;;;;;;4965354;28;20046;-74
2023/09/10 02:49:24;;;;;;;3.05;2.85;;;24.40;75.40;;;;;;4967981;28;20039;-75
2023/09/10 02:51:50;;;;;;;2.00;1.90;;;24.40;75.50;;;;;;4966869;28;20046;-75
2023/09/10 02:54:16;;;;;;;2.28;2.17;;;24.40;75.70;;;;;;4966920;28;20043;-74
2023/09/10 02:56:41;;;;;;;2.75;2.60;;;24.40;75.70;;;;;;4966593;28;20051;-75
2023/09/10 02:59:07;;;;;;;2.35;2.25;;;24.40;75.70;;;;;;4968224;28;20090;-74
2023/09/10 03:01:32;;;;;;;2.78;2.30;;;24.40;75.70;;;;;;4966775;28;20113;-75
2023/09/10 03:03:58;;;;;;;2.78;2.58;;;24.40;75.60;;;;;;4966946;28;20053;-75
2023/09/10 03:06:23;;;;;;;2.22;2.13;;;24.40;75.50;;;;;;4966488;28;20579;-75
2023/09/10 03:08:49;;;;;;;2.28;2.17;;;24.40;75.50;;;;;;4967034;28;20441;-74
2023/09/10 03:11:14;;;;;;;2.35;2.25;;;24.40;75.60;;;;;;4965406;28;20046;-75
2023/09/10 03:13:40;;;;;;;2.22;2.13;;;24.40;75.60;;;;;;4967761;28;20038;-75
2023/09/10 03:16:06;;;;;;;2.20;2.10;;;24.40;75.50;;;;;;4967367;28;20130;-74
2023/09/10 03:18:31;;;;;;;2.13;2.03;;;24.40;75.70;;;;;;4966927;28;20045;-74
2023/09/10 03:20:57;;;;;;;2.22;2.13;;;24.40;75.90;;;;;;4964402;28;20049;-75
2023/09/10 03:23:22;;;;;;;2.30;2.20;;;24.40;76.00;;;;;;4967060;28;20420;-74
2023/09/10 03:25:48;;;;;;;2.42;2.33;;;24.40;75.70;;;;;;4967287;28;20178;-75
2023/09/10 03:28:13;;;;;;;2.30;2.20;;;24.40;75.90;;;;;;4966965;28;20504;-74
2023/09/10 03:30:39;;;;;;;2.35;2.25;;;24.40;75.70;;;;;;4965592;28;20039;-74
2023/09/10 03:33:04;;;;;;;2.38;2.28;;;24.40;76.50;;;;;;4967217;28;20053;-74
2023/09/10 03:35:30;;;;;;;2.50;2.30;;;24.30;75.80;;;;;;4965189;28;20059;-74
2023/09/10 03:37:56;;;;;;;2.58;2.40;;;24.40;76.30;;;;;;4968598;28;20050;-74
2023/09/10 03:40:21;;;;;;;2.58;2.42;;;24.30;76.20;;;;;;4966240;28;20047;-74
2023/09/10 03:42:48;;;;;;;2.70;2.50;;;24.30;75.90;;;;;;4947050;28;20425;-74
2023/09/10 03:45:13;;;;;;;2.20;2.10;;;24.40;75.90;;;;;;4947876;28;20047;-74
2023/09/10 03:47:39;;;;;;;2.40;2.30;;;24.30;75.90;;;;;;4947821;28;20051;-74
2023/09/10 03:50:05;;;;;;;2.20;2.10;;;24.40;76.00;;;;;;4948806;28;20051;-74
2023/09/10 03:52:31;;;;;;;2.40;2.30;;;24.30;76.00;;;;;;4947830;28;20047;-75
2023/09/10 03:54:56;;;;;;;2.15;2.05;;;24.30;76.10;;;;;;4945769;28;20058;-75
2023/09/10 03:57:22;;;;;;;2.30;2.20;;;24.30;76.00;;;;;;4947778;28;20043;-74
2023/09/10 03:59:47;;;;;;;2.40;2.20;;;24.30;75.80;;;;;;4946876;28;20133;-74
2023/09/10 04:02:13;;;;;;;2.38;2.28;;;24.40;75.80;;;;;;4948420;28;20122;-74
2023/09/10 04:04:39;;;;;;;2.42;2.33;;;24.40;76.00;;;;;;4948771;28;20520;-74
2023/09/10 04:07:04;;;;;;;2.42;2.33;;;24.30;76.40;;;;;;4949114;28;20051;-74
2023/09/10 04:09:30;;;;;;;2.42;2.33;;;24.30;76.40;;;;;;4949356;28;20066;-75
2023/09/10 04:11:57;;;;;;;2.30;2.20;;;24.40;77.00;;;;;;4951539;28;20492;-75
2023/09/10 04:14:23;;;;;;;2.33;2.22;;;24.30;76.30;;;;;;4949759;28;20167;-74
2023/09/10 04:16:49;;;;;;;2.35;2.25;;;24.30;76.30;;;;;;4952115;28;20047;-74
2023/09/10 04:19:14;;;;;;;2.15;2.05;;;24.30;76.20;;;;;;4951283;28;20417;-75
2023/09/10 04:21:40;;;;;;;2.20;2.10;;;24.30;76.20;;;;;;4949694;28;20093;-75
2023/09/10 04:24:05;;;;;;;2.20;2.10;;;24.30;76.30;;;;;;4951657;28;20055;-74
2023/09/10 04:26:31;;;;;;;2.22;2.13;;;24.30;76.30;;;;;;4950804;28;20094;-74
2023/09/10 04:28:57;;;;;;;2.25;2.15;;;24.30;76.30;;;;;;4951035;28;20047;-74
2023/09/10 04:31:22;;;;;;;2.10;2.00;;;24.40;77.10;;;;;;4951984;28;20043;-74
2023/09/10 04:33:48;;;;;;;2.50;2.40;;;24.30;76.40;;;;;;4949477;28;20066;-74
2023/09/10 04:36:14;;;;;;;2.60;2.50;;;24.30;76.30;;;;;;4949474;28;20098;-74
2023/09/10 04:38:40;;;;;;;2.40;2.30;;;24.30;76.40;;;;;;4949739;28;20490;-75
2023/09/10 04:41:05;;;;;;;2.40;2.30;;;24.30;77.20;;;;;;4949642;28;20035;-75
2023/09/10 04:43:31;;;;;;;1.98;1.95;;;24.30;76.40;;;;;;4951645;28;20484;-75
2023/09/10 04:45:56;;;;;;;2.42;2.33;;;24.30;76.40;;;;;;4949951;28;20039;-74
2023/09/10 04:48:22;;;;;;;1.98;1.88;;;24.30;76.40;;;;;;4950713;28;20674;-74
2023/09/10 04:50:48;;;;;;;2.33;2.03;;;24.30;76.40;;;;;;4948785;28;20545;-75
2023/09/10 04:53:13;;;;;;;2.00;1.90;;;24.30;76.50;;;;;;4950373;28;20123;-74
2023/09/10 04:55:39;;;;;;;2.40;2.30;;;24.30;76.50;;;;;;4951445;28;20417;-74
2023/09/10 04:58:05;;;;;;;2.42;2.33;;;24.30;76.50;;;;;;4950534;28;20066;-74
2023/09/10 05:00:30;;;;;;;2.10;2.00;;;24.30;76.50;;;;;;4950044;28;20083;-74
2023/09/10 05:02:56;;;;;;;2.30;2.20;;;24.30;76.40;;;;;;4950933;28;20130;-74
2023/09/10 05:05:22;;;;;;;2.30;2.20;;;24.30;76.50;;;;;;4950763;28;20137;-74
2023/09/10 05:07:48;;;;;;;2.15;2.05;;;24.30;76.40;;;;;;4951238;28;20176;-75
2023/09/10 05:10:14;;;;;;;2.30;2.20;;;24.30;76.40;;;;;;4949993;28;20039;-74
2023/09/10 05:12:40;;;;;;;2.22;2.13;;;24.30;76.40;;;;;;4949546;28;20540;-75
2023/09/10 05:15:06;;;;;;;2.50;2.40;;;24.30;76.40;;;;;;4950058;28;20042;-75
2023/09/10 05:17:31;;;;;;;2.40;2.30;;;24.30;76.30;;;;;;4947352;28;20822;-75
2023/09/10 05:19:57;;;;;;;2.53;2.33;;;24.30;76.30;;;;;;4949578;28;20058;-75
2023/09/10 05:22:23;;;;;;;2.22;2.13;;;24.30;76.30;;;;;;4951086;28;20509;-75
2023/09/10 05:24:48;;;;;;;2.47;2.38;;;24.30;76.40;;;;;;4948126;28;20501;-74
2023/09/10 05:27:14;;;;;;;2.58;2.47;;;24.30;76.40;;;;;;4950550;28;20047;-74
2023/09/10 05:29:39;;;;;;;2.63;2.42;;;24.30;76.30;;;;;;4948768;28;20059;-75
2023/09/10 05:32:05;;;;;;;2.53;2.42;;;24.30;76.40;;;;;;4949114;28;20201;-75
2023/09/10 05:34:30;;;;;;;2.47;2.38;;;24.30;76.40;;;;;;4951844;28;20070;-75
2023/09/10 05:36:56;;;;;;;2.70;2.60;;;24.30;76.40;;;;;;4948728;28;20083;-74
2023/09/10 05:39:22;;;;;;;2.50;2.40;;;24.30;76.60;;;;;;4949264;28;20050;-75
2023/09/10 05:41:47;;;;;;;2.60;2.50;;;24.30;76.50;;;;;;4948695;28;20547;-75
2023/09/10 05:44:13;;;;;;;2.20;2.10;;;24.30;76.40;;;;;;4949883;28;20058;-75
2023/09/10 05:46:38;;;;;;;2.47;2.38;;;24.30;77.20;;;;;;4950149;28;20035;-75
2023/09/10 05:49:04;;;;;;;2.40;2.20;;;24.30;76.40;;;;;;4950166;28;20401;-74
2023/09/10 05:51:29;;;;;;;2.33;2.22;;;24.30;76.40;;;;;;4950410;28;20050;-74
2023/09/10 05:53:55;;;;;;;2.30;2.20;;;24.30;76.50;;;;;;4948537;28;20390;-74
2023/09/10 05:56:21;;;;;;;2.63;2.53;;;24.30;76.50;;;;;;4948836;28;20047;-74
2023/09/10 05:58:46;;;;;;;2.40;2.30;;;24.30;76.50;;;;;;4950030;28;20039;-74
2023/09/10 06:01:12;;;;;;;2.50;2.40;;;24.30;76.50;;;;;;4949776;28;20039;-74
2023/09/10 06:03:37;;;;;;;2.58;2.47;;;24.30;76.70;;;;;;4948394;28;20066;-74
2023/09/10 06:06:03;;;;;;;2.30;2.20;;;24.30;76.80;;;;;;4948733;28;20039;-74
2023/09/10 06:08:32;;;;;;;2.60;2.50;;;24.30;76.80;;;;;;4948131;28;20043;-74
2023/09/10 06:10:57;;;;;;;2.38;2.28;;;24.30;76.70;;;;;;4948909;28;20449;-74
2023/09/10 06:13:23;;;;;;;2.55;2.45;;;24.30;76.70;;;;;;4948308;28;20046;-74
2023/09/10 06:15:48;;;;;;;2.60;2.50;;;24.30;76.70;;;;;;4948342;28;20061;-74
2023/09/10 06:18:14;;;;;;;2.30;2.20;;;24.30;76.70;;;;;;4946821;28;20035;-74
2023/09/10 06:20:39;;;;;;;2.50;2.40;;;24.30;76.70;;;;;;4948802;28;20393;-73
2023/09/10 06:23:05;;;;;;;2.30;2.20;;;24.20;76.60;;;;;;4949567;28;20105;-73
2023/09/10 06:25:31;;;;;;;1.85;1.83;;;24.30;76.60;;;;;;4949148;28;20035;-74
2023/09/10 06:27:57;;;;;;;2.40;2.30;;;24.30;76.60;;;;;;4947540;28;20049;-73
2023/09/10 06:30:23;;;;;;;2.20;2.10;;;24.30;76.70;;;;;;4948806;28;20027;-74
2023/09/10 06:32:49;;;;;;;2.63;2.53;;;24.20;76.60;;;;;;4948351;28;20174;-74
2023/09/10 06:35:15;;;;;;;2.22;2.13;;;24.30;76.50;;;;;;4948374;28;20182;-73
2023/09/10 06:37:40;;;;;;;2.42;2.33;;;24.30;76.60;;;;;;4949552;28;20133;-74
2023/09/10 06:40:06;;;;;;;2.50;2.40;;;24.30;76.60;;;;;;4947844;28;20058;-74
2023/09/10 06:42:32;;;;;;;2.10;2.00;;;24.30;76.60;;;;;;4948991;28;20039;-74
2023/09/10 06:44:57;;;;;;;2.15;2.05;;;24.30;76.60;;;;;;4947371;28;20082;-74
2023/09/10 06:47:23;;;;;;;2.22;2.13;;;24.30;76.50;;;;;;4949079;28;20049;-74
2023/09/10 06:49:49;;;;;;;2.67;2.58;;;24.30;76.50;;;;;;4949359;28;20063;-74
2023/09/10 06:52:14;;;;;;;2.50;2.40;;;24.30;76.40;;;;;;4947756;28;20047;-74
2023/09/10 06:54:40;;;;;;;2.70;2.60;;;24.30;76.40;;;;;;4948673;28;20395;-74
2023/09/10 06:57:05;;;;;;;2.50;2.40;;;24.30;77.30;;;;;;4947374;28;20065;-73
2023/09/10 06:59:31;;;;;;;2.08;1.98;;;24.30;76.40;;;;;;4947576;28;20043;-74
2023/09/10 07:01:57;;;;;;;2.33;2.22;;;24.30;76.50;;;;;;4948098;28;20513;-73
2023/09/10 07:04:24;;;;;;;2.30;2.20;;;24.30;76.70;;;;;;4948545;28;20050;-73
2023/09/10 07:06:50;;;;;;;2.70;2.60;;;24.30;76.70;;;;;;4946940;28;20047;-73
2023/09/10 07:09:16;;;;;;;2.33;2.22;;;24.30;76.60;;;;;;4947680;28;20401;-74
2023/09/10 07:11:42;;;;;;;2.38;2.28;;;24.30;76.60;;;;;;4947784;28;20042;-73
2023/09/10 07:14:08;;;;;;;2.38;2.28;;;24.30;76.50;;;;;;4947706;28;20047;-74
2023/09/10 07:16:34;;;;;;;2.13;2.03;;;24.30;76.40;;;;;;4949203;28;20055;-73
2023/09/10 07:19:00;;;;;;;2.65;2.55;;;24.30;76.40;;;;;;4947680;28;20051;-73
2023/09/10 07:21:26;;;;;;;2.30;2.20;;;24.30;76.60;;;;;;4948420;28;20478;-74
2023/09/10 07:23:51;;;;;;;2.20;2.10;;;24.30;76.60;;;;;;4946250;28;20616;-74
2023/09/10 07:26:17;;;;;;;2.10;2.00;;;24.30;76.60;;;;;;4948435;28;20054;-73
2023/09/10 07:28:42;;;;;;;2.25;2.15;;;24.30;76.70;;;;;;4947738;28;20047;-74
2023/09/10 07:31:08;;;;;;;3.75;2.17;;;24.30;76.80;;;;;;4947826;28;20856;-74
2023/09/10 07:33:34;;;;;;;2.70;2.60;;;24.30;76.80;;;;;;4947951;28;20043;-73
2023/09/10 07:35:59;;;;;;;2.40;2.30;;;24.30;76.90;;;;;;4948256;28;20405;-73
2023/09/10 07:38:25;;;;;;;2.33;2.22;;;24.30;76.80;;;;;;4947249;28;20058;-74
2023/09/10 07:40:50;;;;;;;2.20;2.10;;;24.30;76.70;;;;;;4949494;28;20551;-74
2023/09/10 07:43:16;;;;;;;2.15;2.05;;;24.30;76.70;;;;;;4954352;28;20047;-74
2023/09/10 07:45:41;;;;;;;2.33;2.22;;;24.30;76.80;;;;;;4951904;28;20073;-74
2023/09/10 07:48:07;;;;;;;2.00;1.90;;;24.30;76.80;;;;;;4954218;28;20087;-73
2023/09/10 07:50:33;;;;;;;2.47;2.28;;;24.30;76.90;;;;;;4954589;28;20079;-73
2023/09/10 07:52:58;;;;;;;2.35;2.25;;;24.30;76.90;;;;;;4954336;28;20473;-74
2023/09/10 07:55:25;;;;;;;2.22;2.13;;;24.30;76.90;;;;;;4954585;28;20046;-73
2023/09/10 07:57:50;;;;;;;2.47;2.38;;;24.30;76.80;;;;;;4953584;28;20093;-74
2023/09/10 08:00:17;;;;;;;2.30;2.20;;;24.30;76.80;;;;;;4950609;28;20039;-73
2023/09/10 08:02:42;;;;;;;2.20;2.10;;;24.30;76.80;;;;;;4953539;28;20506;-73
2023/09/10 08:05:08;;;;;;;2.45;2.35;;;24.30;76.90;;;;;;4954729;28;20050;-73
2023/09/10 08:07:34;;;;;;;2.10;2.00;;;24.30;77.00;;;;;;4954597;28;20035;-74
2023/09/10 08:10:00;;;;;;;2.20;2.10;;;24.30;77.10;;;;;;4953608;28;20062;-73
2023/09/10 08:12:26;;;;;;;2.10;2.00;;;24.30;77.10;;;;;;4953363;28;20135;-73
2023/09/10 08:14:51;;;;;;;2.40;2.30;;;24.30;77.20;;;;;;4953569;28;20043;-73
2023/09/10 08:17:17;;;;;;;2.10;2.00;;;24.30;77.20;;;;;;4954278;28;20051;-74
2023/09/10 08:19:43;;;;;;;2.00;1.95;;;24.30;77.10;;;;;;4954997;28;20399;-74
2023/09/10 08:22:08;;;;;;;2.33;2.22;;;24.30;77.20;;;;;;4953579;28;20417;-74
2023/09/10 08:24:34;;;;;;;2.30;2.20;;;24.30;77.20;;;;;;4952895;28;20043;-74
2023/09/10 08:27:01;;;;;;;2.40;2.30;;;24.30;77.20;;;;;;4954400;28;20529;-74
2023/09/10 08:29:26;;;;;;;2.45;2.35;;;24.30;77.30;;;;;;4955275;28;20093;-74
2023/09/10 08:31:53;;;;;;;2.47;2.38;;;24.30;77.10;;;;;;4952832;28;20055;-74
2023/09/10 08:34:19;;;;;;;2.45;2.35;;;24.30;77.00;;;;;;4954079;28;20090;-73
2023/09/10 08:36:44;;;;;;;2.88;2.53;;;24.30;77.10;;;;;;4952358;28;20043;-73
2023/09/10 08:39:10;;;;;;;2.67;2.58;;;24.30;77.20;;;;;;4953628;28;20090;-74
2023/09/10 08:41:57;;;;;;;2.65;2.55;;;24.30;78.00;;;;;;4953657;28;20031;-73
2023/09/10 08:44:23;;;;;;;2.20;2.10;;;24.30;77.10;;;;;;4953228;28;20039;-73
2023/09/10 08:46:49;;;;;;;2.78;2.67;;;24.30;77.20;;;;;;4936041;28;20054;-74
2023/09/10 08:49:15;;;;;;;2.63;2.50;;;24.30;77.10;;;;;;4953709;28;20035;-74
2023/09/10 08:51:40;;;;;;;2.58;2.47;;;24.30;77.10;;;;;;4935774;28;20119;-73
2023/09/10 08:54:06;;;;;;;2.40;2.30;;;24.40;76.80;;;;;;4948723;28;20505;-73
2023/09/10 08:56:31;;;;;;;2.65;2.55;;;24.40;77.10;;;;;;4933726;28;20511;-73
2023/09/10 08:58:57;;;;;;;2.60;2.50;;;24.40;76.60;;;;;;4959905;28;20035;-74
2023/09/10 09:01:23;;;;;;;2.50;2.33;;;24.40;77.10;;;;;;4948110;28;20127;-73
2023/09/10 09:03:49;;;;;;;2.65;2.55;;;24.40;76.70;;;;;;4949194;28;20501;-74
2023/09/10 09:06:15;;;;;;;2.30;2.20;;;24.40;76.50;;;;;;4950211;28;20086;-73
2023/09/10 09:08:40;;;;;;;2.88;2.78;;;24.40;76.60;;;;;;4945640;28;20047;-73
2023/09/10 09:11:07;;;;;;;2.55;2.45;;;24.40;77.00;;;;;;4950132;28;20074;-74
2023/09/10 09:13:38;;;;;;;4.22;2.50;;;24.40;76.70;;;;;;4953006;28;20122;-73
2023/09/10 09:16:04;;;;;;;2.78;2.67;;;24.40;76.50;;;;;;4948855;28;20138;-74
2023/09/10 09:18:30;;;;;;;2.40;2.30;;;24.40;76.70;;;;;;4950074;28;20039;-74
2023/09/10 09:20:57;;;;;;;2.65;2.55;;;24.40;76.50;;;;;;4949127;28;20090;-74
2023/09/10 09:23:27;;;;;;;2.50;2.40;;;24.40;76.50;;;;;;4950030;28;20035;-74
2023/09/10 09:25:52;;;;;;;2.75;2.65;;;24.40;76.50;;;;;;4947695;28;20062;-74
2023/09/10 09:28:18;;;;;;;2.55;2.45;;;24.40;76.60;;;;;;4949664;28;20505;-73
2023/09/10 09:30:44;;;;;;;2.60;2.50;;;24.40;76.60;;;;;;4948866;28;20043;-74
2023/09/10 09:33:09;;;;;;;2.58;2.47;;;24.40;76.50;;;;;;4949158;28;20501;-74
2023/09/10 09:35:35;;;;;;;2.83;2.63;;;24.40;76.50;;;;;;4950196;28;20062;-73
2023/09/10 09:38:20;;;;;;;2.40;2.30;;;24.40;77.20;;;;;;4949330;28;20094;-73
2023/09/10 09:40:45;;;;;;;2.70;2.60;;;24.40;76.60;;;;;;4951599;28;20043;-73
2023/09/10 09:43:11;;;;;;;2.80;2.70;;;24.40;76.70;;;;;;4932035;28;20070;-74
2023/09/10 09:45:37;;;;;;;2.67;2.58;;;24.40;76.60;;;;;;4948638;28;20028;-73
2023/09/10 09:48:04;;;;;;;2.50;2.40;;;24.40;76.70;;;;;;4947805;28;20408;-73
2023/09/10 09:50:30;;;;;;;2.40;2.30;;;24.40;77.00;;;;;;4949320;28;20097;-73
2023/09/10 09:52:56;;;;;;;2.47;2.38;;;24.40;76.70;;;;;;4958168;28;20468;-74
2023/09/10 09:55:21;;;;;;;2.55;2.45;;;24.40;76.70;;;;;;4968798;28;20512;-73
2023/09/10 09:57:48;;;;;;;2.40;2.30;;;24.40;76.70;;;;;;4966433;28;20050;-74
2023/09/10 10:00:14;;;;;;;2.60;2.50;;;24.40;77.10;;;;;;4619236;28;9999851;-73
2023/09/10 10:02:39;;;;;;;2.40;2.30;;;24.40;76.80;;;;;;4967649;28;20050;-73
2023/09/10 10:05:05;;;;;;;2.92;2.83;;;24.40;76.90;;;;;;4968038;28;20046;-73
2023/09/10 10:07:34;;;;;;;2.83;2.70;;;24.40;77.80;;;;;;4623721;28;10000338;-73
2023/09/10 10:09:59;;;;;;;2.50;2.40;;;24.40;77.30;;;;;;4963389;28;20040;-73
2023/09/10 10:12:25;;;;;;;3.25;2.53;;;24.40;78.30;;;;;;4962580;28;20226;-73
2023/09/10 10:14:51;;;;;;;2.60;2.40;;;24.40;77.60;;;;;;4963484;28;20540;-74
2023/09/10 10:17:16;;;;;;;2.55;2.35;;;24.40;77.60;;;;;;4942576;28;20055;-73
2023/09/10 10:19:42;;;;;;;2.60;2.50;;;24.40;77.70;;;;;;4965425;28;20050;-74
2023/09/10 10:22:07;;;;;;;2.72;2.63;;;24.40;77.70;;;;;;4961992;28;20417;-74
2023/09/10 10:24:33;;;;;;;3.03;2.83;;;24.40;77.70;;;;;;4963274;28;20046;-74
2023/09/10 10:26:59;;;;;;;2.55;2.45;;;24.40;77.70;;;;;;4961936;28;20031;-73
2023/09/10 10:29:25;;;;;;;2.40;2.30;;;24.40;77.80;;;;;;4960721;28;21100;-73
2023/09/10 10:32:12;;;;;;;2.75;2.65;;;24.40;77.90;;;;;;4946386;28;20046;-72
2023/09/10 10:34:38;;;;;;;2.72;2.53;;;24.40;77.80;;;;;;4963356;28;20312;-73
2023/09/10 10:37:44;;;;;;;2.90;2.80;;;24.40;77.90;;;;;;4943033;28;20054;-73
2023/09/10 10:40:13;;;;;;;3.40;3.10;;;24.40;78.00;;;;;;4957753;28;22401;-73
2023/09/10 10:43:03;;;;;;;2.72;2.53;;;24.40;78.00;;;;;;4960811;28;20539;-73
2023/09/10 10:45:28;;;;;;;2.88;2.78;;;24.40;78.10;;;;;;4961113;28;20065;-73
2023/09/10 10:47:54;;;;;;;3.63;2.90;;;24.40;77.90;;;;;;4958994;28;20039;-73
2023/09/10 10:50:26;;;;;;;5.78;3.75;;;24.40;78.80;;;;;;4957639;28;20509;-73
2023/09/10 10:52:59;;;;;;;5.47;4.05;;;24.40;78.60;;;;;;4964171;28;20109;-73
2023/09/10 10:55:25;;;;;;;7.22;5.38;;;24.40;79.20;;;;;;4960285;28;20117;-73
2023/09/10 10:57:51;;;;;;;4.63;4.22;;;24.40;79.70;;;;;;4961410;28;20501;-73
2023/09/10 11:00:17;;;;;;;6.57;4.95;;;24.40;80.20;;;;;;4961902;28;20082;-73
2023/09/10 11:02:42;;;;;;;5.10;4.50;;;24.50;81.90;;;;;;4944091;28;20126;-73
2023/09/10 11:05:08;;;;;;;4.85;4.38;;;24.40;81.60;;;;;;4960741;28;20082;-73
2023/09/10 11:07:34;;;;;;;4.72;4.22;;;24.50;82.20;;;;;;4962869;28;20532;-73
2023/09/10 11:10:20;;;;;;;4.13;3.80;;;24.50;83.00;;;;;;4961577;28;20430;-73
2023/09/10 11:13:06;;;;;;;3.42;3.22;;;24.50;81.70;;;;;;4963946;28;20062;-73
2023/09/10 11:15:31;;;;;;;3.42;3.20;;;24.50;80.80;;;;;;4959170;28;20114;-73
2023/09/10 11:18:34;;;;;;;6.00;3.15;;;24.50;80.00;;;;;;4958739;28;20058;-73
2023/09/10 11:21:01;;;;;;;3.28;3.08;;;24.50;79.60;;;;;;4962706;28;20143;-73
2023/09/10 11:23:26;;;;;;;3.05;2.80;;;24.50;79.50;;;;;;4963865;28;20046;-73
2023/09/10 11:25:52;;;;;;;3.22;3.03;;;24.50;79.40;;;;;;4964915;28;20256;-73
2023/09/10 11:28:42;;;;;;;3.30;3.10;;;24.50;79.40;;;;;;4958625;28;20092;-73
2023/09/10 11:31:29;;;;;;;3.10;2.85;;;24.50;79.50;;;;;;4960262;28;20070;-73
2023/09/10 11:34:00;;;;;;;2.97;2.88;;;24.50;79.40;;;;;;4960291;28;20047;-73
2023/09/10 11:36:26;;;;;;;3.63;3.42;;;24.50;79.30;;;;;;4962865;28;20043;-73
2023/09/10 11:38:54;;;;;;;3.33;3.13;;;24.60;79.40;;;;;;4945869;28;20106;-73
2023/09/10 11:41:21;;;;;;;3.42;3.03;;;24.60;79.30;;;;;;4961676;28;20356;-73
2023/09/10 11:43:49;;;;;;;3.28;3.08;;;24.60;79.20;;;;;;4963951;28;20516;-73
2023/09/10 11:46:14;;;;;;;3.53;3.22;;;24.60;79.20;;;;;;4962716;28;20055;-73
2023/09/10 11:48:40;;;;;;;4.25;2.90;;;24.60;79.20;;;;;;4962923;28;20043;-73
2023/09/10 11:51:06;;;;;;;3.50;3.20;;;24.60;79.10;;;;;;4960572;28;20391;-73
2023/09/10 11:53:31;;;;;;;3.00;2.80;;;24.60;79.10;;;;;;4960451;28;20050;-73
2023/09/10 11:55:58;;;;;;;3.17;3.00;;;24.60;78.80;;;;;;4963126;28;20054;-73
2023/09/10 11:58:23;;;;;;;3.67;3.38;;;24.60;78.70;;;;;;4961539;28;20156;-73
2023/09/10 12:00:49;;;;;;;3.03;2.83;;;24.60;78.60;;;;;;4961246;28;20504;-72
2023/09/10 12:03:14;;;;;;;3.20;3.00;;;24.60;78.60;;;;;;4960784;28;20059;-73
2023/09/10 12:05:41;;;;;;;3.30;3.10;;;24.60;78.50;;;;;;4960621;28;20607;-73
2023/09/10 12:08:06;;;;;;;3.10;3.00;;;24.60;78.50;;;;;;4961531;28;20528;-73
2023/09/10 12:10:32;;;;;;;3.25;3.15;;;24.60;78.50;;;;;;4959807;28;20053;-73
2023/09/10 12:13:03;;;;;;;2.90;2.80;;;24.60;78.50;;;;;;4964176;28;20070;-74
2023/09/10 12:15:29;;;;;;;3.90;3.60;;;24.60;79.40;;;;;;4942488;28;20378;-73
2023/09/10 12:17:55;;;;;;;2.88;2.78;;;24.60;78.50;;;;;;4963241;28;20082;-73
2023/09/10 12:20:21;;;;;;;3.40;3.10;;;24.60;78.50;;;;;;4959236;28;20444;-73
2023/09/10 12:22:47;;;;;;;3.50;3.30;;;24.60;78.60;;;;;;4961784;28;20117;-73
2023/09/10 12:25:12;;;;;;;3.05;2.90;;;24.70;78.60;;;;;;4961878;28;20035;-73
2023/09/10 12:27:38;;;;;;;2.83;2.72;;;24.70;78.60;;;;;;4961492;28;20139;-73
2023/09/10 12:30:04;;;;;;;3.20;3.00;;;24.70;78.50;;;;;;4966174;28;20035;-73
2023/09/10 12:32:30;;;;;;;4.03;2.95;;;24.70;78.50;;;;;;4960255;28;20047;-73
2023/09/10 12:34:55;;;;;;;3.05;2.85;;;24.70;78.40;;;;;;4966734;28;20046;-73
2023/09/10 12:37:21;;;;;;;3.83;3.63;;;24.70;78.50;;;;;;4964925;28;20173;-73
2023/09/10 12:39:47;;;;;;;3.17;3.08;;;24.70;78.40;;;;;;4944706;28;20133;-73
2023/09/10 12:42:12;;;;;;;2.72;2.63;;;24.70;78.40;;;;;;4966104;28;20099;-73